createdAt,value
2019-03-06T00:00:59.661Z,6.72
2019-03-06T00:01:59.271Z,6.69
2019-03-06T00:02:59.024Z,6.7
2019-03-06T00:03:59.260Z,6.63
2019-03-06T00:04:59.216Z,6.67
2019-03-06T00:05:59.219Z,6.74
2019-03-06T00:06:58.731Z,6.62
2019-03-06T00:07:58.957Z,6.67
2019-03-06T00:08:59.192Z,6.57
2019-03-06T00:09:59.163Z,6.54
2019-03-06T00:10:59.237Z,6.59
2019-03-06T00:11:58.970Z,6.56
2019-03-06T00:12:58.927Z,6.6
2019-03-06T00:13:59.176Z,6.57
2019-03-06T00:14:58.904Z,6.54
2019-03-06T00:15:58.633Z,6.6
2019-03-06T00:16:58.877Z,6.56
2019-03-06T00:17:58.863Z,6.51
2019-03-06T00:18:59.136Z,6.56
2019-03-06T00:19:59.106Z,6.67
2019-03-06T00:20:58.837Z,6.54
2019-03-06T00:21:59.098Z,6.62
2019-03-06T00:22:59.079Z,6.46
2019-03-06T00:23:58.826Z,6.49
2019-03-06T00:24:59.064Z,6.45
2019-03-06T00:25:58.837Z,6.56
2019-03-06T00:26:58.863Z,6.59
2019-03-06T00:27:58.821Z,6.46
2019-03-06T00:28:59.034Z,6.46
2019-03-06T00:29:58.776Z,6.57
2019-03-06T00:30:59.000Z,6.59
2019-03-06T00:31:59.008Z,6.48
2019-03-06T00:32:58.758Z,6.49
2019-03-06T00:33:58.494Z,6.57
2019-03-06T00:34:58.478Z,6.51
2019-03-06T00:35:58.892Z,6.52
2019-03-06T00:36:58.709Z,6.57
2019-03-06T00:37:58.977Z,6.62
2019-03-06T00:38:58.727Z,6.56
2019-03-06T00:39:58.694Z,6.54
2019-03-06T00:40:58.670Z,6.52
2019-03-06T00:41:58.923Z,6.62
2019-03-06T00:42:58.406Z,6.57
2019-03-06T00:43:58.671Z,6.52
2019-03-06T00:44:58.863Z,6.59
2019-03-06T00:45:58.874Z,6.54
2019-03-06T00:46:58.626Z,6.52
2019-03-06T00:47:58.876Z,6.49
2019-03-06T00:48:58.607Z,6.6
2019-03-06T00:49:58.602Z,6.57
2019-03-06T00:50:58.587Z,6.54
2019-03-06T00:51:58.584Z,6.51
2019-03-06T00:52:58.573Z,6.62
2019-03-06T00:53:59.207Z,6.51
2019-03-06T00:54:58.826Z,6.49
2019-03-06T00:55:58.791Z,6.48
2019-03-06T00:56:58.548Z,6.52
2019-03-06T00:57:58.548Z,6.6
2019-03-06T00:58:58.772Z,6.59
2019-03-06T00:59:58.516Z,6.57
2019-03-06T01:00:58.494Z,6.51
2019-03-06T01:01:58.756Z,6.46
2019-03-06T01:02:59.047Z,6.52
2019-03-06T01:03:58.747Z,6.56
2019-03-06T01:04:58.221Z,6.49
2019-03-06T01:05:58.461Z,6.67
2019-03-06T01:06:58.731Z,6.54
2019-03-06T01:07:58.468Z,6.59
2019-03-06T01:08:58.457Z,6.49
2019-03-06T01:09:58.702Z,6.48
2019-03-06T01:10:58.419Z,6.49
2019-03-06T01:11:59.032Z,6.51
2019-03-06T01:12:58.635Z,6.56
2019-03-06T01:13:58.123Z,6.51
2019-03-06T01:14:58.399Z,6.52
2019-03-06T01:15:58.637Z,6.56
2019-03-06T01:16:58.127Z,6.46
2019-03-06T01:17:58.149Z,6.51
2019-03-06T01:18:58.352Z,6.45
2019-03-06T01:19:58.761Z,6.52
2019-03-06T01:20:58.593Z,6.56
2019-03-06T01:21:58.594Z,6.63
2019-03-06T01:22:58.078Z,6.48
2019-03-06T01:23:58.565Z,6.51
2019-03-06T01:24:58.323Z,6.51
2019-03-06T01:25:58.298Z,6.46
2019-03-06T01:26:58.548Z,6.45
2019-03-06T01:27:58.539Z,6.45
2019-03-06T01:28:58.693Z,6.44
2019-03-06T01:29:58.280Z,6.39
2019-03-06T01:30:58.010Z,6.35
2019-03-06T01:31:58.246Z,6.28
2019-03-06T01:33:00.600Z,6.28
2019-03-06T01:33:58.480Z,6.2
2019-03-06T01:34:58.218Z,6.14
2019-03-06T01:35:58.480Z,6.17
2019-03-06T01:36:58.224Z,6.19
2019-03-06T01:37:58.775Z,6.08
2019-03-06T01:38:58.441Z,6.12
2019-03-06T01:39:58.188Z,6.12
2019-03-06T01:40:58.186Z,6.07
2019-03-06T01:41:58.163Z,6.12
2019-03-06T01:42:58.156Z,6.07
2019-03-06T01:43:58.155Z,6.12
2019-03-06T01:44:57.890Z,6.14
2019-03-06T01:45:57.900Z,6.16
2019-03-06T01:46:58.175Z,6.14
2019-03-06T01:47:58.375Z,6.09
2019-03-06T01:48:58.120Z,6.16
2019-03-06T01:49:57.849Z,6.12
2019-03-06T01:50:58.092Z,6.12
2019-03-06T01:51:57.847Z,6.08
2019-03-06T01:52:58.400Z,6.11
2019-03-06T01:53:58.069Z,6.07
2019-03-06T01:54:58.061Z,6.08
2019-03-06T01:55:58.493Z,6.01
2019-03-06T01:56:58.067Z,6.02
2019-03-06T01:57:58.285Z,5.98
2019-03-06T01:58:58.022Z,5.93
2019-03-06T01:59:58.275Z,5.97
2019-03-06T02:00:58.017Z,6.01
2019-03-06T02:01:57.774Z,6.02
2019-03-06T02:02:58.003Z,6.05
2019-03-06T02:03:58.229Z,6.12
2019-03-06T02:04:58.115Z,6.12
2019-03-06T02:05:58.211Z,5.98
2019-03-06T02:06:57.724Z,6.14
2019-03-06T02:07:58.186Z,6.08
2019-03-06T02:08:57.934Z,6.02
2019-03-06T02:09:58.188Z,6.01
2019-03-06T02:10:58.168Z,5.94
2019-03-06T02:11:58.159Z,6.01
2019-03-06T02:12:58.287Z,5.97
2019-03-06T02:13:58.139Z,5.98
2019-03-06T02:14:57.644Z,5.94
2019-03-06T02:15:58.124Z,5.97
2019-03-06T02:16:58.164Z,6.04
2019-03-06T02:17:58.126Z,6.02
2019-03-06T02:18:57.865Z,5.94
2019-03-06T02:19:58.080Z,6.01
2019-03-06T02:20:57.845Z,5.99
2019-03-06T02:21:57.909Z,5.99
2019-03-06T02:22:57.815Z,5.97
2019-03-06T02:23:57.829Z,5.91
2019-03-06T02:24:58.057Z,5.91
2019-03-06T02:25:57.813Z,5.98
2019-03-06T02:26:57.783Z,5.86
2019-03-06T02:27:58.028Z,5.8
2019-03-06T02:28:58.025Z,5.83
2019-03-06T02:29:58.006Z,5.89
2019-03-06T02:30:58.444Z,5.86
2019-03-06T02:31:57.510Z,5.93
2019-03-06T02:32:58.003Z,5.84
2019-03-06T02:33:57.740Z,5.84
2019-03-06T02:34:57.971Z,5.84
2019-03-06T02:35:57.712Z,5.84
2019-03-06T02:36:57.708Z,5.72
2019-03-06T02:37:57.994Z,5.87
2019-03-06T02:38:57.757Z,5.76
2019-03-06T02:39:57.908Z,5.86
2019-03-06T02:40:57.928Z,5.8
2019-03-06T02:41:57.906Z,5.86
2019-03-06T02:42:57.669Z,5.86
2019-03-06T02:43:57.890Z,5.79
2019-03-06T02:44:57.897Z,5.84
2019-03-06T02:45:57.893Z,5.82
2019-03-06T02:46:57.850Z,5.79
2019-03-06T02:47:58.380Z,5.84
2019-03-06T02:48:57.856Z,5.83
2019-03-06T02:49:57.582Z,5.76
2019-03-06T02:50:57.602Z,5.83
2019-03-06T02:51:57.604Z,5.84
2019-03-06T02:52:57.850Z,5.84
2019-03-06T02:53:57.827Z,5.83
2019-03-06T02:54:57.537Z,5.89
2019-03-06T02:55:57.727Z,5.86
2019-03-06T02:56:57.532Z,5.84
2019-03-06T02:57:57.513Z,5.83
2019-03-06T02:58:57.788Z,5.86
2019-03-06T02:59:57.756Z,5.82
2019-03-06T03:00:57.499Z,5.75
2019-03-06T03:01:57.731Z,5.84
2019-03-06T03:02:57.469Z,5.8
2019-03-06T03:03:57.732Z,5.76
2019-03-06T03:04:58.033Z,5.71
2019-03-06T03:05:57.702Z,5.79
2019-03-06T03:06:57.696Z,5.75
2019-03-06T03:07:57.712Z,5.72
2019-03-06T03:08:57.672Z,5.76
2019-03-06T03:09:57.432Z,5.79
2019-03-06T03:10:57.455Z,5.84
2019-03-06T03:11:57.437Z,5.82
2019-03-06T03:12:57.663Z,5.84
2019-03-06T03:13:57.833Z,5.75
2019-03-06T03:14:57.376Z,5.76
2019-03-06T03:15:57.380Z,5.76
2019-03-06T03:16:57.595Z,5.75
2019-03-06T03:17:57.586Z,5.71
2019-03-06T03:18:57.331Z,5.64
2019-03-06T03:19:57.182Z,5.61
2019-03-06T03:20:57.570Z,5.68
2019-03-06T03:21:57.784Z,5.66
2019-03-06T03:22:57.285Z,5.66
2019-03-06T03:23:57.038Z,5.64
2019-03-06T03:24:57.281Z,5.59
2019-03-06T03:25:57.531Z,5.66
2019-03-06T03:26:57.513Z,5.66
2019-03-06T03:27:57.019Z,5.68
2019-03-06T03:28:57.509Z,5.62
2019-03-06T03:29:57.256Z,5.64
2019-03-06T03:30:57.772Z,5.56
2019-03-06T03:31:57.480Z,5.56
2019-03-06T03:32:57.213Z,5.57
2019-03-06T03:33:57.237Z,5.56
2019-03-06T03:34:57.452Z,5.48
2019-03-06T03:35:57.435Z,5.51
2019-03-06T03:36:57.174Z,5.56
2019-03-06T03:37:57.417Z,5.5
2019-03-06T03:38:57.737Z,5.54
2019-03-06T03:39:57.159Z,5.56
2019-03-06T03:40:57.148Z,5.5
2019-03-06T03:41:56.883Z,5.47
2019-03-06T03:42:57.395Z,5.53
2019-03-06T03:43:57.146Z,5.54
2019-03-06T03:44:57.093Z,5.54
2019-03-06T03:45:57.093Z,5.56
2019-03-06T03:46:57.134Z,5.64
2019-03-06T03:47:57.403Z,5.56
2019-03-06T03:48:57.066Z,5.64
2019-03-06T03:49:57.311Z,5.59
2019-03-06T03:50:57.053Z,5.56
2019-03-06T03:51:57.056Z,5.53
2019-03-06T03:52:57.023Z,5.48
2019-03-06T03:53:57.277Z,5.48
2019-03-06T03:54:57.027Z,5.54
2019-03-06T03:55:57.663Z,5.51
2019-03-06T03:56:57.261Z,5.56
2019-03-06T03:57:57.008Z,5.48
2019-03-06T03:58:57.241Z,5.47
2019-03-06T03:59:58.382Z,5.41
2019-03-06T04:00:56.975Z,5.46
2019-03-06T04:01:57.232Z,5.35
2019-03-06T04:02:56.692Z,5.36
2019-03-06T04:03:57.239Z,5.35
2019-03-06T04:04:57.405Z,5.3
2019-03-06T04:05:56.945Z,5.28
2019-03-06T04:06:57.171Z,5.26
2019-03-06T04:07:57.173Z,5.29
2019-03-06T04:08:56.921Z,5.29
2019-03-06T04:09:57.157Z,5.29
2019-03-06T04:10:56.885Z,5.17
2019-03-06T04:11:57.142Z,5.14
2019-03-06T04:12:57.596Z,5.17
2019-03-06T04:13:57.098Z,5.2
2019-03-06T04:14:57.087Z,5.2
2019-03-06T04:15:57.081Z,5.2
2019-03-06T04:16:57.075Z,5.12
2019-03-06T04:17:57.070Z,5.14
2019-03-06T04:18:57.041Z,5.1
2019-03-06T04:19:56.795Z,5.12
2019-03-06T04:20:56.944Z,5.14
2019-03-06T04:21:56.790Z,5.11
2019-03-06T04:22:57.025Z,5.2
2019-03-06T04:23:56.763Z,5.18
2019-03-06T04:24:57.007Z,5.14
2019-03-06T04:25:56.750Z,5.15
2019-03-06T04:26:56.994Z,5.12
2019-03-06T04:27:56.967Z,5.17
2019-03-06T04:28:56.731Z,5.21
2019-03-06T04:29:57.195Z,5.32
2019-03-06T04:30:56.951Z,5.26
2019-03-06T04:31:56.914Z,5.29
2019-03-06T04:32:56.917Z,5.28
2019-03-06T04:33:56.955Z,5.28
2019-03-06T04:34:56.892Z,5.2
2019-03-06T04:35:56.914Z,5.36
2019-03-06T04:36:56.893Z,5.3
2019-03-06T04:37:56.455Z,5.29
2019-03-06T04:38:57.170Z,5.3
2019-03-06T04:39:56.851Z,5.25
2019-03-06T04:40:56.618Z,5.28
2019-03-06T04:41:56.829Z,5.23
2019-03-06T04:42:56.825Z,5.17
2019-03-06T04:43:56.820Z,5.12
2019-03-06T04:44:57.825Z,5.1
2019-03-06T04:45:56.797Z,5.18
2019-03-06T04:46:56.976Z,5.23
2019-03-06T04:47:56.832Z,5.15
2019-03-06T04:48:56.503Z,5.15
2019-03-06T04:49:57.569Z,5.15
2019-03-06T04:50:56.483Z,5.14
2019-03-06T04:51:56.486Z,5.2
2019-03-06T04:52:56.231Z,5.28
2019-03-06T04:53:56.460Z,5.23
2019-03-06T04:54:56.476Z,5.2
2019-03-06T04:55:57.079Z,5.28
2019-03-06T04:56:56.448Z,5.26
2019-03-06T04:57:56.679Z,5.21
2019-03-06T04:58:56.413Z,5.18
2019-03-06T04:59:56.706Z,5.26
2019-03-06T05:00:56.657Z,5.2
2019-03-06T05:01:56.421Z,5.17
2019-03-06T05:02:56.626Z,5.21
2019-03-06T05:03:56.370Z,5.14
2019-03-06T05:04:57.063Z,5.08
2019-03-06T05:05:56.625Z,5.15
2019-03-06T05:06:56.612Z,5.17
2019-03-06T05:07:56.107Z,5.11
2019-03-06T05:08:56.321Z,5.14
2019-03-06T05:09:56.327Z,5.1
2019-03-06T05:10:56.596Z,5.18
2019-03-06T05:11:56.334Z,5.12
2019-03-06T05:12:56.477Z,5.14
2019-03-06T05:13:56.270Z,5.2
2019-03-06T05:14:56.266Z,5.15
2019-03-06T05:15:56.261Z,5.15
2019-03-06T05:16:56.515Z,5.08
2019-03-06T05:17:56.262Z,5.11
2019-03-06T05:18:56.501Z,5.29
2019-03-06T05:19:56.492Z,5.15
2019-03-06T05:20:56.211Z,5.2
2019-03-06T05:21:56.635Z,5.21
2019-03-06T05:22:56.220Z,5.21
2019-03-06T05:23:56.187Z,5.14
2019-03-06T05:24:56.471Z,5.15
2019-03-06T05:25:56.430Z,5.15
2019-03-06T05:26:56.214Z,5.17
2019-03-06T05:27:55.905Z,5.12
2019-03-06T05:28:56.133Z,5.17
2019-03-06T05:29:56.134Z,5.14
2019-03-06T05:30:56.656Z,5.12
2019-03-06T05:31:56.378Z,5.1
2019-03-06T05:32:56.367Z,5.07
2019-03-06T05:33:56.344Z,5.07
2019-03-06T05:34:56.327Z,4.94
2019-03-06T05:35:56.075Z,4.99
2019-03-06T05:36:55.832Z,5
2019-03-06T05:37:56.337Z,4.93
2019-03-06T05:38:56.058Z,4.9
2019-03-06T05:39:56.461Z,5.02
2019-03-06T05:40:56.292Z,4.93
2019-03-06T05:41:56.281Z,4.89
2019-03-06T05:42:56.012Z,4.92
2019-03-06T05:43:55.998Z,4.89
2019-03-06T05:44:56.238Z,4.89
2019-03-06T05:45:55.977Z,4.84
2019-03-06T05:46:55.974Z,4.8
2019-03-06T05:47:56.055Z,4.78
2019-03-06T05:48:55.953Z,4.77
2019-03-06T05:49:55.946Z,4.8
2019-03-06T05:50:55.935Z,4.84
2019-03-06T05:51:55.916Z,4.84
2019-03-06T05:52:55.987Z,4.86
2019-03-06T05:53:56.190Z,4.87
2019-03-06T05:54:56.182Z,4.82
2019-03-06T05:55:56.181Z,4.93
2019-03-06T05:56:55.949Z,4.89
2019-03-06T05:57:56.199Z,4.9
2019-03-06T05:58:55.608Z,4.87
2019-03-06T05:59:56.091Z,4.96
2019-03-06T06:00:55.831Z,4.9
2019-03-06T06:01:56.066Z,4.94
2019-03-06T06:02:56.087Z,4.94
2019-03-06T06:03:55.821Z,4.96
2019-03-06T06:04:55.546Z,5
2019-03-06T06:05:55.704Z,5
2019-03-06T06:06:56.052Z,4.97
2019-03-06T06:07:56.015Z,5.05
2019-03-06T06:08:55.778Z,5.05
2019-03-06T06:09:55.746Z,4.99
2019-03-06T06:10:55.751Z,5.05
2019-03-06T06:11:55.727Z,4.99
2019-03-06T06:12:55.814Z,5.02
2019-03-06T06:13:55.724Z,5.04
2019-03-06T06:14:56.072Z,5.02
2019-03-06T06:15:55.947Z,5.02
2019-03-06T06:16:55.661Z,5.05
2019-03-06T06:17:55.929Z,4.99
2019-03-06T06:18:55.674Z,4.97
2019-03-06T06:19:55.409Z,5
2019-03-06T06:20:55.432Z,5.1
2019-03-06T06:21:55.640Z,5.07
2019-03-06T06:22:55.396Z,5.05
2019-03-06T06:23:56.104Z,5.08
2019-03-06T06:24:55.348Z,5.07
2019-03-06T06:25:55.847Z,5.14
2019-03-06T06:26:55.858Z,5.1
2019-03-06T06:27:55.352Z,5.12
2019-03-06T06:28:55.811Z,5.15
2019-03-06T06:29:55.558Z,5.17
2019-03-06T06:30:55.557Z,5.2
2019-03-06T06:31:55.576Z,5.18
2019-03-06T06:32:55.820Z,5.18
2019-03-06T06:33:55.794Z,5.32
2019-03-06T06:34:55.530Z,5.26
2019-03-06T06:35:55.510Z,5.3
2019-03-06T06:36:55.539Z,5.32
2019-03-06T06:37:55.306Z,5.33
2019-03-06T06:38:55.228Z,5.33
2019-03-06T06:39:55.483Z,5.39
2019-03-06T06:40:55.898Z,5.56
2019-03-06T06:41:55.747Z,5.48
2019-03-06T06:42:55.445Z,5.46
2019-03-06T06:43:55.694Z,5.61
2019-03-06T06:44:55.423Z,5.56
2019-03-06T06:45:55.487Z,5.62
2019-03-06T06:46:55.428Z,5.48
2019-03-06T06:47:55.177Z,5.56
2019-03-06T06:48:55.408Z,5.57
2019-03-06T06:49:55.944Z,5.56
2019-03-06T06:51:04.856Z,5.68
2019-03-06T06:51:55.382Z,5.64
2019-03-06T06:52:55.366Z,5.66
2019-03-06T06:53:55.346Z,5.57
2019-03-06T06:54:55.334Z,5.64
2019-03-06T06:55:55.345Z,5.68
2019-03-06T06:56:55.609Z,5.66
2019-03-06T06:57:55.311Z,5.65
2019-03-06T06:58:55.667Z,5.64
2019-03-06T06:59:55.576Z,5.72
2019-03-06T07:00:55.052Z,5.82
2019-03-06T07:01:55.601Z,5.83
2019-03-06T07:02:55.294Z,5.79
2019-03-06T07:03:55.259Z,5.87
2019-03-06T07:04:55.255Z,5.91
2019-03-06T07:05:55.245Z,5.91
2019-03-06T07:06:56.049Z,5.99
2019-03-06T07:07:55.379Z,6.01
2019-03-06T07:08:55.488Z,5.99
2019-03-06T07:09:55.468Z,6.11
2019-03-06T07:10:55.212Z,6.12
2019-03-06T07:11:54.962Z,6.11
2019-03-06T07:12:55.424Z,6.28
2019-03-06T07:13:55.429Z,6.27
2019-03-06T07:14:55.207Z,6.39
2019-03-06T07:15:55.204Z,6.46
2019-03-06T07:16:57.493Z,6.48
2019-03-06T07:17:55.139Z,6.52
2019-03-06T07:18:55.371Z,6.51
2019-03-06T07:19:55.135Z,6.57
2019-03-06T07:20:55.131Z,6.57
2019-03-06T07:21:55.358Z,6.74
2019-03-06T07:22:55.358Z,6.77
2019-03-06T07:23:55.105Z,6.82
2019-03-06T07:24:55.112Z,6.74
2019-03-06T07:25:55.214Z,6.87
2019-03-06T07:26:55.073Z,6.99
2019-03-06T07:27:55.085Z,7
2019-03-06T07:28:55.300Z,7.15
2019-03-06T07:29:55.292Z,7.23
2019-03-06T07:30:55.284Z,7.31
2019-03-06T07:31:55.052Z,7.4
2019-03-06T07:32:55.284Z,7.5
2019-03-06T07:33:55.310Z,7.66
2019-03-06T07:34:55.412Z,7.87
2019-03-06T07:35:55.576Z,8.24
2019-03-06T07:36:54.999Z,8.74
2019-03-06T07:37:54.999Z,9.39
2019-03-06T07:38:55.239Z,9.91
2019-03-06T07:39:55.000Z,10.41
2019-03-06T07:40:55.000Z,10.97
2019-03-06T07:41:55.004Z,11.33
2019-03-06T07:42:55.201Z,11.55
2019-03-06T07:43:55.202Z,11.9
2019-03-06T07:44:55.484Z,12.07
2019-03-06T07:45:54.699Z,12.36
2019-03-06T07:46:54.977Z,12.45
2019-03-06T07:47:54.973Z,12.47
2019-03-06T07:48:54.965Z,12.4
2019-03-06T07:49:54.695Z,12.4
2019-03-06T07:50:55.193Z,12.47
2019-03-06T07:51:54.938Z,12.6
2019-03-06T07:52:54.937Z,12.7
2019-03-06T07:53:55.737Z,12.83
2019-03-06T07:54:55.171Z,13.01
2019-03-06T07:55:54.928Z,13.12
2019-03-06T07:56:55.179Z,13.41
2019-03-06T07:57:54.921Z,13.59
2019-03-06T07:58:54.668Z,13.83
2019-03-06T07:59:55.189Z,13.96
2019-03-06T08:00:54.951Z,14.2
2019-03-06T08:01:55.177Z,14.47
2019-03-06T08:02:55.229Z,14.51
2019-03-06T08:03:55.248Z,14.37
2019-03-06T08:04:55.156Z,14.28
2019-03-06T08:05:54.674Z,14.04
2019-03-06T08:06:55.189Z,13.93
2019-03-06T08:07:55.168Z,13.83
2019-03-06T08:08:55.158Z,13.83
2019-03-06T08:09:54.923Z,13.89
2019-03-06T08:10:55.168Z,13.9
2019-03-06T08:11:55.369Z,14.18
2019-03-06T08:12:55.155Z,14.48
2019-03-06T08:13:55.171Z,14.73
2019-03-06T08:14:55.158Z,14.99
2019-03-06T08:15:54.914Z,15.03
2019-03-06T08:16:54.673Z,15.25
2019-03-06T08:17:54.960Z,15.25
2019-03-06T08:18:56.002Z,15.52
2019-03-06T08:19:55.162Z,15.4
2019-03-06T08:20:55.402Z,15.19
2019-03-06T08:21:54.931Z,14.86
2019-03-06T08:22:54.922Z,14.26
2019-03-06T08:23:54.915Z,13.79
2019-03-06T08:24:55.152Z,13.19
2019-03-06T08:25:54.913Z,12.76
2019-03-06T08:26:54.935Z,12.31
2019-03-06T08:27:55.164Z,11.84
2019-03-06T08:28:54.661Z,11.57
2019-03-06T08:29:55.396Z,11.4
2019-03-06T08:30:54.671Z,11.08
2019-03-06T08:31:55.183Z,10.9
2019-03-06T08:32:55.181Z,10.75
2019-03-06T08:33:54.917Z,10.57
2019-03-06T08:34:55.152Z,10.56
2019-03-06T08:35:54.912Z,10.44
2019-03-06T08:36:54.937Z,10.4
2019-03-06T08:37:55.164Z,10.42
2019-03-06T08:38:55.359Z,10.37
2019-03-06T08:39:54.906Z,10.4
2019-03-06T08:41:03.498Z,10.28
2019-03-06T08:41:55.167Z,10.25
2019-03-06T08:42:54.939Z,10.25
2019-03-06T08:43:55.293Z,10.17
2019-03-06T08:44:55.152Z,10.17
2019-03-06T08:45:54.920Z,10.31
2019-03-06T08:46:55.166Z,10.23
2019-03-06T08:47:56.629Z,10.22
2019-03-06T08:48:55.289Z,10.31
2019-03-06T08:49:55.279Z,10.3
2019-03-06T08:50:55.136Z,10.31
2019-03-06T08:51:55.288Z,10.25
2019-03-06T08:52:54.781Z,10.28
2019-03-06T08:53:54.936Z,10.38
2019-03-06T08:54:55.175Z,10.4
2019-03-06T08:55:55.150Z,10.41
2019-03-06T08:56:55.366Z,10.41
2019-03-06T08:57:55.307Z,10.51
2019-03-06T08:58:55.179Z,10.48
2019-03-06T08:59:55.095Z,10.48
2019-03-06T09:00:55.223Z,10.54
2019-03-06T09:02:04.575Z,10.61
2019-03-06T09:02:54.833Z,10.63
2019-03-06T09:03:54.588Z,10.57
2019-03-06T09:04:55.117Z,10.63
2019-03-06T09:05:55.457Z,10.75
2019-03-06T09:06:54.851Z,10.72
2019-03-06T09:07:55.077Z,10.76
2019-03-06T09:08:54.849Z,10.79
2019-03-06T09:09:54.809Z,10.82
2019-03-06T09:11:02.377Z,10.86
2019-03-06T09:11:55.089Z,10.82
2019-03-06T09:12:55.090Z,10.92
2019-03-06T09:13:55.094Z,10.94
2019-03-06T09:14:55.185Z,10.94
2019-03-06T09:15:54.793Z,10.97
2019-03-06T09:16:54.857Z,11.04
2019-03-06T09:17:55.094Z,11.14
2019-03-06T09:18:55.154Z,11.18
2019-03-06T09:19:55.158Z,11.23
2019-03-06T09:20:54.755Z,11.29
2019-03-06T09:21:55.015Z,11.32
2019-03-06T09:22:54.747Z,11.4
2019-03-06T09:23:55.429Z,11.41
2019-03-06T09:24:55.012Z,11.44
2019-03-06T09:25:54.990Z,11.37
2019-03-06T09:26:55.010Z,11.43
2019-03-06T09:27:54.730Z,11.51
2019-03-06T09:29:03.451Z,11.45
2019-03-06T09:29:54.723Z,11.55
2019-03-06T09:30:54.993Z,11.59
2019-03-06T09:31:54.954Z,11.73
2019-03-06T09:32:55.502Z,11.8
2019-03-06T09:33:54.711Z,11.94
2019-03-06T09:34:54.943Z,11.94
2019-03-06T09:35:54.936Z,11.97
2019-03-06T09:36:54.696Z,12.12
2019-03-06T09:37:54.939Z,12.15
2019-03-06T09:38:54.943Z,12.21
2019-03-06T09:39:54.934Z,12.12
2019-03-06T09:40:54.939Z,12.12
2019-03-06T09:41:55.235Z,12.06
2019-03-06T09:42:54.922Z,12.12
2019-03-06T09:43:54.954Z,12.24
2019-03-06T09:44:54.659Z,12.24
2019-03-06T09:45:54.923Z,12.13
2019-03-06T09:46:54.997Z,12.2
2019-03-06T09:47:54.662Z,12.24
2019-03-06T09:48:54.904Z,12.22
2019-03-06T09:49:54.911Z,12.27
2019-03-06T09:50:55.161Z,12.24
2019-03-06T09:51:54.651Z,12.17
2019-03-06T09:52:54.901Z,12.29
2019-03-06T09:53:54.886Z,12.22
2019-03-06T09:54:55.116Z,12.25
2019-03-06T09:55:54.937Z,12.27
2019-03-06T09:56:54.890Z,12.2
2019-03-06T09:57:54.396Z,12.22
2019-03-06T09:58:54.800Z,12.25
2019-03-06T09:59:54.864Z,12.21
2019-03-06T10:00:54.870Z,12.31
2019-03-06T10:01:54.624Z,12.21
2019-03-06T10:02:54.865Z,12.22
2019-03-06T10:03:54.673Z,12.22
2019-03-06T10:04:54.362Z,12.25
2019-03-06T10:05:54.848Z,12.36
2019-03-06T10:06:54.356Z,12.35
2019-03-06T10:07:55.185Z,12.31
2019-03-06T10:08:54.869Z,12.31
2019-03-06T10:10:03.810Z,12.47
2019-03-06T10:11:02.099Z,12.37
2019-03-06T10:11:54.346Z,12.39
2019-03-06T10:12:54.841Z,12.5
2019-03-06T10:13:56.938Z,12.45
2019-03-06T10:14:54.572Z,12.54
2019-03-06T10:15:54.819Z,12.58
2019-03-06T10:16:54.835Z,12.58
2019-03-06T10:17:54.826Z,12.64
2019-03-06T10:18:54.561Z,12.64
2019-03-06T10:19:54.309Z,12.79
2019-03-06T10:20:54.845Z,12.7
2019-03-06T10:21:54.580Z,12.75
2019-03-06T10:22:59.495Z,12.76
2019-03-06T10:23:54.748Z,12.82
2019-03-06T10:24:55.675Z,12.8
2019-03-06T10:25:54.554Z,12.97
2019-03-06T10:26:54.803Z,12.91
2019-03-06T10:27:54.555Z,12.97
2019-03-06T10:30:12.996Z,13.19
2019-03-06T10:31:12.438Z,13.25
2019-03-06T10:32:12.946Z,13.27
2019-03-06T10:33:12.431Z,13.23
2019-03-06T10:34:12.677Z,13.33
2019-03-06T10:35:12.667Z,13.46
2019-03-06T10:36:12.929Z,13.44
2019-03-06T10:37:13.425Z,13.5
2019-03-06T10:38:19.350Z,13.5
2019-03-06T10:39:12.663Z,13.52
2019-03-06T10:40:12.893Z,13.59
2019-03-06T10:41:12.911Z,13.54
2019-03-06T10:42:13.084Z,13.6
2019-03-06T10:43:12.901Z,13.57
2019-03-06T10:44:13.025Z,13.54
2019-03-06T10:45:12.952Z,13.54
2019-03-06T10:46:12.900Z,13.56
2019-03-06T10:47:13.144Z,13.67
2019-03-06T10:48:12.633Z,13.72
2019-03-06T10:49:12.886Z,13.7
2019-03-06T10:50:12.891Z,13.77
2019-03-06T10:51:12.907Z,13.78
2019-03-06T10:52:13.003Z,13.86
2019-03-06T10:53:12.624Z,13.9
2019-03-06T10:54:12.668Z,13.78
2019-03-06T10:55:12.847Z,13.85
2019-03-06T10:56:12.373Z,13.9
2019-03-06T10:57:14.548Z,13.99
2019-03-06T10:58:12.637Z,13.93
2019-03-06T10:59:12.645Z,14
2019-03-06T11:00:12.850Z,14.04
2019-03-06T11:01:12.854Z,13.96
2019-03-06T11:02:13.191Z,14.12
2019-03-06T11:03:12.831Z,14.17
2019-03-06T11:04:12.836Z,14.18
2019-03-06T11:05:12.834Z,14.23
2019-03-06T11:06:12.600Z,14.26
2019-03-06T11:07:13.143Z,14.37
2019-03-06T11:08:12.626Z,14.36
2019-03-06T11:09:12.881Z,14.35
2019-03-06T11:10:12.803Z,14.36
2019-03-06T11:11:12.870Z,14.32
2019-03-06T11:12:12.768Z,14.33
2019-03-06T11:13:13.505Z,14.35
2019-03-06T11:14:12.839Z,14.43
2019-03-06T11:15:13.081Z,14.55
2019-03-06T11:16:12.788Z,14.53
2019-03-06T11:17:13.277Z,14.63
2019-03-06T11:18:12.776Z,14.69
2019-03-06T11:19:12.793Z,14.62
2019-03-06T11:20:12.790Z,14.77
2019-03-06T11:21:12.781Z,14.82
2019-03-06T11:22:12.779Z,14.84
2019-03-06T11:23:12.785Z,14.73
2019-03-06T11:24:12.522Z,14.77
2019-03-06T11:25:12.798Z,14.81
2019-03-06T11:26:12.785Z,14.84
2019-03-06T11:27:12.526Z,14.66
2019-03-06T11:28:12.780Z,14.65
2019-03-06T11:29:12.782Z,14.63
2019-03-06T11:30:12.530Z,14.63
2019-03-06T11:31:12.921Z,14.69
2019-03-06T11:32:12.770Z,14.66
2019-03-06T11:33:12.797Z,14.65
2019-03-06T11:34:12.766Z,14.68
2019-03-06T11:35:12.530Z,14.77
2019-03-06T11:36:12.544Z,14.66
2019-03-06T11:37:12.774Z,14.63
2019-03-06T11:38:12.516Z,14.62
2019-03-06T11:39:13.270Z,14.62
2019-03-06T11:40:12.500Z,14.63
2019-03-06T11:41:12.749Z,14.68
2019-03-06T11:42:12.523Z,14.66
2019-03-06T11:43:12.739Z,14.65
2019-03-06T11:44:12.731Z,14.66
2019-03-06T11:45:12.773Z,14.73
2019-03-06T11:46:12.735Z,14.82
2019-03-06T11:47:13.135Z,14.86
2019-03-06T11:48:12.742Z,14.89
2019-03-06T11:49:12.765Z,15.14
2019-03-06T11:50:12.735Z,15.19
2019-03-06T11:51:12.499Z,15.24
2019-03-06T11:52:12.474Z,15.43
2019-03-06T11:53:13.296Z,15.54
2019-03-06T11:54:13.201Z,15.62
2019-03-06T11:55:13.118Z,15.58
2019-03-06T11:56:13.199Z,15.8
2019-03-06T11:57:12.230Z,15.83
2019-03-06T11:58:12.797Z,15.82
2019-03-06T11:59:12.466Z,15.94
2019-03-06T12:00:12.729Z,16
2019-03-06T12:01:12.480Z,16.1
2019-03-06T12:02:13.025Z,16.09
2019-03-06T12:03:12.480Z,16.05
2019-03-06T12:04:12.737Z,16.05
2019-03-06T12:05:12.476Z,16.05
2019-03-06T12:06:12.489Z,15.97
2019-03-06T12:07:12.735Z,16.05
2019-03-06T12:08:12.466Z,16.1
2019-03-06T12:09:12.724Z,16.08
2019-03-06T12:10:13.120Z,16.09
2019-03-06T12:11:12.236Z,16.2
2019-03-06T12:12:12.228Z,16.17
2019-03-06T12:13:12.205Z,16.16
2019-03-06T12:14:12.713Z,16.29
2019-03-06T12:15:12.708Z,16.26
2019-03-06T12:16:12.739Z,16.31
2019-03-06T12:17:12.637Z,16.29
2019-03-06T12:18:12.223Z,16.26
2019-03-06T12:19:12.728Z,16.24
2019-03-06T12:20:13.403Z,16.28
2019-03-06T12:21:12.485Z,16.32
2019-03-06T12:22:12.456Z,16.17
2019-03-06T12:23:12.726Z,16.17
2019-03-06T12:24:13.138Z,16.08
2019-03-06T12:25:12.717Z,16.1
2019-03-06T12:26:12.708Z,16.05
2019-03-06T12:27:12.712Z,16.04
2019-03-06T12:28:12.710Z,16.05
2019-03-06T12:29:12.687Z,16.12
2019-03-06T12:30:12.702Z,16.04
2019-03-06T12:31:12.687Z,16.04
2019-03-06T12:32:12.720Z,16
2019-03-06T12:33:12.848Z,15.97
2019-03-06T12:34:12.699Z,15.98
2019-03-06T12:35:12.442Z,16.05
2019-03-06T12:36:12.425Z,16.08
2019-03-06T12:37:12.693Z,16.13
2019-03-06T12:38:13.355Z,16.29
2019-03-06T12:39:12.674Z,16.39
2019-03-06T12:40:17.668Z,16.36
2019-03-06T12:41:12.799Z,16.42
2019-03-06T12:42:19.435Z,16.43
2019-03-06T12:43:12.434Z,16.51
2019-03-06T12:44:15.539Z,16.57
2019-03-06T12:45:12.683Z,16.57
2019-03-06T12:46:12.179Z,16.71
2019-03-06T12:47:13.186Z,16.76
2019-03-06T12:48:12.178Z,16.81
2019-03-06T12:49:12.425Z,16.89
2019-03-06T12:50:13.107Z,16.89
2019-03-06T12:51:12.426Z,16.87
2019-03-06T12:52:12.427Z,16.96
2019-03-06T12:53:12.970Z,16.97
2019-03-06T12:54:12.430Z,16.96
2019-03-06T12:55:12.444Z,16.79
2019-03-06T12:56:12.443Z,16.78
2019-03-06T12:57:12.690Z,16.75
2019-03-06T12:58:12.954Z,16.64
2019-03-06T12:59:12.699Z,16.57
2019-03-06T13:00:12.688Z,16.53
2019-03-06T13:01:12.695Z,16.56
2019-03-06T13:02:12.435Z,16.58
2019-03-06T13:03:12.670Z,16.54
2019-03-06T13:04:12.174Z,16.56
2019-03-06T13:05:12.446Z,16.65
2019-03-06T13:06:12.643Z,16.61
2019-03-06T13:07:12.513Z,16.68
2019-03-06T13:10:21.647Z,16.58
2019-03-06T13:10:31.359Z,16.65
2019-03-06T13:11:31.355Z,16.68
2019-03-06T13:12:34.010Z,16.68
2019-03-06T13:15:39.666Z,16.75